sensor_id;sensor_type;location;lat;lon;timestamp;P1;durP1;ratioP1;P2;durP2;ratioP2
64225;SDS011;50545;56.064;26.178;2022-09-06T00:00:25;1.70;;;1.23;;
64225;SDS011;50545;56.064;26.178;2022-09-06T00:02:53;1.40;;;1.20;;
64225;SDS011;50545;56.064;26.178;2022-09-06T00:05:21;1.42;;;1.10;;
64225;SDS011;50545;56.064;26.178;2022-09-06T00:07:48;1.75;;;1.10;;
64225;SDS011;50545;56.064;26.178;2022-09-06T00:10:15;1.48;;;1.17;;
64225;SDS011;50545;56.064;26.178;2022-09-06T00:12:43;2.25;;;1.17;;
64225;SDS011;50545;56.064;26.178;2022-09-06T00:15:10;2.55;;;1.38;;
64225;SDS011;50545;56.064;26.178;2022-09-06T00:17:37;1.55;;;1.27;;
64225;SDS011;50545;56.064;26.178;2022-09-06T00:20:05;3.17;;;1.30;;
64225;SDS011;50545;56.064;26.178;2022-09-06T00:22:36;1.40;;;1.10;;
64225;SDS011;50545;56.064;26.178;2022-09-06T00:25:04;1.15;;;1.02;;
64225;SDS011;50545;56.064;26.178;2022-09-06T00:27:33;1.00;;;1.00;;
64225;SDS011;50545;56.064;26.178;2022-09-06T00:30:00;1.00;;;1.00;;
64225;SDS011;50545;56.064;26.178;2022-09-06T00:32:30;2.33;;;1.20;;
64225;SDS011;50545;56.064;26.178;2022-09-06T00:34:58;2.05;;;1.20;;
64225;SDS011;50545;56.064;26.178;2022-09-06T00:37:25;1.80;;;1.20;;
64225;SDS011;50545;56.064;26.178;2022-09-06T00:39:52;1.23;;;1.13;;
64225;SDS011;50545;56.064;26.178;2022-09-06T00:42:20;1.20;;;1.13;;
64225;SDS011;50545;56.064;26.178;2022-09-06T00:44:48;1.45;;;1.23;;
64225;SDS011;50545;56.064;26.178;2022-09-06T00:47:16;2.13;;;1.08;;
64225;SDS011;50545;56.064;26.178;2022-09-06T00:49:45;1.48;;;1.17;;
64225;SDS011;50545;56.064;26.178;2022-09-06T00:52:16;1.67;;;1.17;;
64225;SDS011;50545;56.064;26.178;2022-09-06T00:54:45;2.50;;;1.40;;
64225;SDS011;50545;56.064;26.178;2022-09-06T00:57:14;1.20;;;1.10;;
64225;SDS011;50545;56.064;26.178;2022-09-06T00:59:43;1.42;;;1.00;;
64225;SDS011;50545;56.064;26.178;2022-09-06T01:02:12;1.27;;;1.08;;
64225;SDS011;50545;56.064;26.178;2022-09-06T01:04:40;2.53;;;1.10;;
64225;SDS011;50545;56.064;26.178;2022-09-06T01:13:25;3.20;;;1.30;;
64225;SDS011;50545;56.064;26.178;2022-09-06T01:16:00;1.38;;;1.27;;
64225;SDS011;50545;56.064;26.178;2022-09-06T01:18:48;1.27;;;1.00;;
64225;SDS011;50545;56.064;26.178;2022-09-06T01:21:52;1.88;;;1.20;;
64225;SDS011;50545;56.064;26.178;2022-09-06T01:24:36;1.02;;;1.00;;
64225;SDS011;50545;56.064;26.178;2022-09-06T01:30:18;3.08;;;1.10;;
64225;SDS011;50545;56.064;26.178;2022-09-06T01:35:15;3.38;;;1.25;;
64225;SDS011;50545;56.064;26.178;2022-09-06T01:37:50;1.13;;;1.05;;
64225;SDS011;50545;56.064;26.178;2022-09-06T01:40:18;1.33;;;1.20;;
64225;SDS011;50545;56.064;26.178;2022-09-06T01:42:45;1.75;;;1.15;;
64225;SDS011;50545;56.064;26.178;2022-09-06T01:45:16;1.17;;;1.10;;
64225;SDS011;50545;56.064;26.178;2022-09-06T01:48:39;2.47;;;1.02;;
64225;SDS011;50545;56.064;26.178;2022-09-06T01:53:58;1.38;;;1.10;;
64225;SDS011;50545;56.064;26.178;2022-09-06T01:56:58;2.08;;;1.17;;
64225;SDS011;50545;56.064;26.178;2022-09-06T02:07:54;2.60;;;1.38;;
64225;SDS011;50545;56.064;26.178;2022-09-06T02:10:27;2.05;;;1.20;;
64225;SDS011;50545;56.064;26.178;2022-09-06T02:13:02;1.70;;;1.40;;
64225;SDS011;50545;56.064;26.178;2022-09-06T02:15:33;3.00;;;1.35;;
64225;SDS011;50545;56.064;26.178;2022-09-06T02:18:07;2.58;;;1.20;;
64225;SDS011;50545;56.064;26.178;2022-09-06T02:20:40;1.88;;;1.20;;
64225;SDS011;50545;56.064;26.178;2022-09-06T02:23:13;2.20;;;1.35;;
64225;SDS011;50545;56.064;26.178;2022-09-06T02:25:43;1.58;;;1.15;;
64225;SDS011;50545;56.064;26.178;2022-09-06T02:28:16;3.42;;;1.23;;
64225;SDS011;50545;56.064;26.178;2022-09-06T02:30:46;3.58;;;1.50;;
64225;SDS011;50545;56.064;26.178;2022-09-06T02:33:18;1.20;;;1.10;;
64225;SDS011;50545;56.064;26.178;2022-09-06T02:35:47;2.08;;;1.20;;
64225;SDS011;50545;56.064;26.178;2022-09-06T02:38:17;1.70;;;1.40;;
64225;SDS011;50545;56.064;26.178;2022-09-06T02:40:49;2.88;;;1.48;;
64225;SDS011;50545;56.064;26.178;2022-09-06T02:43:19;2.35;;;1.63;;
64225;SDS011;50545;56.064;26.178;2022-09-06T02:45:47;2.03;;;1.50;;
64225;SDS011;50545;56.064;26.178;2022-09-06T02:48:14;3.50;;;1.52;;
64225;SDS011;50545;56.064;26.178;2022-09-06T02:50:42;2.10;;;1.55;;
64225;SDS011;50545;56.064;26.178;2022-09-06T02:53:11;1.88;;;1.63;;
64225;SDS011;50545;56.064;26.178;2022-09-06T02:55:39;4.72;;;1.40;;
64225;SDS011;50545;56.064;26.178;2022-09-06T02:58:08;2.17;;;1.40;;
64225;SDS011;50545;56.064;26.178;2022-09-06T03:00:36;2.00;;;1.60;;
64225;SDS011;50545;56.064;26.178;2022-09-06T03:03:04;3.53;;;1.45;;
64225;SDS011;50545;56.064;26.178;2022-09-06T03:05:32;1.30;;;1.20;;
64225;SDS011;50545;56.064;26.178;2022-09-06T03:07:59;2.05;;;1.45;;
64225;SDS011;50545;56.064;26.178;2022-09-06T03:10:26;1.50;;;1.27;;
64225;SDS011;50545;56.064;26.178;2022-09-06T03:12:54;2.05;;;1.60;;
64225;SDS011;50545;56.064;26.178;2022-09-06T03:15:21;1.65;;;1.50;;
64225;SDS011;50545;56.064;26.178;2022-09-06T03:17:48;2.92;;;1.50;;
64225;SDS011;50545;56.064;26.178;2022-09-06T03:20:16;1.40;;;1.30;;
64225;SDS011;50545;56.064;26.178;2022-09-06T03:22:43;2.10;;;1.50;;
64225;SDS011;50545;56.064;26.178;2022-09-06T03:25:10;2.45;;;1.45;;
64225;SDS011;50545;56.064;26.178;2022-09-06T03:27:37;2.80;;;1.60;;
64225;SDS011;50545;56.064;26.178;2022-09-06T03:30:05;1.77;;;1.52;;
64225;SDS011;50545;56.064;26.178;2022-09-06T03:32:33;4.43;;;1.80;;
64225;SDS011;50545;56.064;26.178;2022-09-06T03:35:00;1.63;;;1.42;;
64225;SDS011;50545;56.064;26.178;2022-09-06T03:37:28;2.15;;;1.60;;
64225;SDS011;50545;56.064;26.178;2022-09-06T03:39:55;1.95;;;1.67;;
64225;SDS011;50545;56.064;26.178;2022-09-06T03:42:23;2.95;;;1.70;;
64225;SDS011;50545;56.064;26.178;2022-09-06T03:44:52;3.13;;;1.35;;
64225;SDS011;50545;56.064;26.178;2022-09-06T03:47:19;1.55;;;1.27;;
64225;SDS011;50545;56.064;26.178;2022-09-06T03:49:47;2.13;;;1.50;;
64225;SDS011;50545;56.064;26.178;2022-09-06T03:52:14;2.55;;;1.50;;
64225;SDS011;50545;56.064;26.178;2022-09-06T03:54:42;2.13;;;1.60;;
64225;SDS011;50545;56.064;26.178;2022-09-06T03:57:09;2.55;;;1.65;;
64225;SDS011;50545;56.064;26.178;2022-09-06T03:59:36;5.15;;;1.63;;
64225;SDS011;50545;56.064;26.178;2022-09-06T04:02:03;1.65;;;1.45;;
64225;SDS011;50545;56.064;26.178;2022-09-06T04:04:32;2.35;;;1.65;;
64225;SDS011;50545;56.064;26.178;2022-09-06T04:06:59;2.30;;;1.75;;
64225;SDS011;50545;56.064;26.178;2022-09-06T04:09:26;2.53;;;1.67;;
64225;SDS011;50545;56.064;26.178;2022-09-06T04:11:54;1.50;;;1.40;;
64225;SDS011;50545;56.064;26.178;2022-09-06T04:14:21;3.55;;;1.45;;
64225;SDS011;50545;56.064;26.178;2022-09-06T04:16:48;3.58;;;1.50;;
64225;SDS011;50545;56.064;26.178;2022-09-06T04:19:16;3.40;;;1.40;;
64225;SDS011;50545;56.064;26.178;2022-09-06T04:21:43;2.70;;;1.75;;
64225;SDS011;50545;56.064;26.178;2022-09-06T04:24:10;1.50;;;1.40;;
64225;SDS011;50545;56.064;26.178;2022-09-06T04:26:38;2.47;;;1.50;;
64225;SDS011;50545;56.064;26.178;2022-09-06T04:29:05;2.70;;;1.52;;
64225;SDS011;50545;56.064;26.178;2022-09-06T04:31:33;2.78;;;1.42;;
64225;SDS011;50545;56.064;26.178;2022-09-06T04:34:00;2.80;;;1.55;;
64225;SDS011;50545;56.064;26.178;2022-09-06T04:36:27;1.55;;;1.38;;
64225;SDS011;50545;56.064;26.178;2022-09-06T04:38:55;2.22;;;1.55;;
64225;SDS011;50545;56.064;26.178;2022-09-06T04:41:22;1.60;;;1.42;;
64225;SDS011;50545;56.064;26.178;2022-09-06T04:43:49;4.50;;;1.50;;
64225;SDS011;50545;56.064;26.178;2022-09-06T04:46:26;2.50;;;1.70;;
64225;SDS011;50545;56.064;26.178;2022-09-06T04:48:56;1.95;;;1.55;;
64225;SDS011;50545;56.064;26.178;2022-09-06T04:51:23;1.50;;;1.40;;
64225;SDS011;50545;56.064;26.178;2022-09-06T04:53:51;2.13;;;1.65;;
64225;SDS011;50545;56.064;26.178;2022-09-06T04:56:19;2.05;;;1.50;;
64225;SDS011;50545;56.064;26.178;2022-09-06T04:58:49;1.98;;;1.70;;
64225;SDS011;50545;56.064;26.178;2022-09-06T05:01:17;3.33;;;1.60;;
64225;SDS011;50545;56.064;26.178;2022-09-06T05:03:46;1.95;;;1.60;;
64225;SDS011;50545;56.064;26.178;2022-09-06T05:06:20;2.10;;;1.60;;
64225;SDS011;50545;56.064;26.178;2022-09-06T05:08:49;2.40;;;1.70;;
64225;SDS011;50545;56.064;26.178;2022-09-06T05:11:16;2.67;;;1.60;;
64225;SDS011;50545;56.064;26.178;2022-09-06T05:13:44;2.53;;;1.73;;
64225;SDS011;50545;56.064;26.178;2022-09-06T05:16:13;3.15;;;1.60;;
64225;SDS011;50545;56.064;26.178;2022-09-06T05:18:40;2.13;;;1.70;;
64225;SDS011;50545;56.064;26.178;2022-09-06T05:21:08;1.73;;;1.48;;
64225;SDS011;50545;56.064;26.178;2022-09-06T05:23:35;2.17;;;1.33;;
64225;SDS011;50545;56.064;26.178;2022-09-06T05:26:03;3.00;;;1.60;;
64225;SDS011;50545;56.064;26.178;2022-09-06T05:28:31;2.83;;;1.35;;
64225;SDS011;50545;56.064;26.178;2022-09-06T05:31:11;1.60;;;1.40;;
64225;SDS011;50545;56.064;26.178;2022-09-06T05:33:51;1.60;;;1.40;;
64225;SDS011;50545;56.064;26.178;2022-09-06T05:36:20;2.00;;;1.35;;
64225;SDS011;50545;56.064;26.178;2022-09-06T05:38:49;1.58;;;1.48;;
64225;SDS011;50545;56.064;26.178;2022-09-06T05:41:17;4.63;;;1.58;;
64225;SDS011;50545;56.064;26.178;2022-09-06T05:43:44;2.58;;;1.42;;
64225;SDS011;50545;56.064;26.178;2022-09-06T05:46:12;2.97;;;1.50;;
64225;SDS011;50545;56.064;26.178;2022-09-06T05:48:39;2.58;;;1.65;;
64225;SDS011;50545;56.064;26.178;2022-09-06T05:51:08;1.75;;;1.33;;
64225;SDS011;50545;56.064;26.178;2022-09-06T05:53:39;1.67;;;1.25;;
64225;SDS011;50545;56.064;26.178;2022-09-06T05:56:09;1.65;;;1.52;;
64225;SDS011;50545;56.064;26.178;2022-09-06T05:58:37;1.35;;;1.20;;
64225;SDS011;50545;56.064;26.178;2022-09-06T06:03:59;1.35;;;1.25;;
64225;SDS011;50545;56.064;26.178;2022-09-06T06:06:31;1.40;;;1.30;;
64225;SDS011;50545;56.064;26.178;2022-09-06T06:08:59;4.00;;;1.73;;
64225;SDS011;50545;56.064;26.178;2022-09-06T06:11:28;4.97;;;1.67;;
64225;SDS011;50545;56.064;26.178;2022-09-06T06:13:56;7.22;;;1.83;;
64225;SDS011;50545;56.064;26.178;2022-09-06T06:16:24;2.08;;;1.48;;
64225;SDS011;50545;56.064;26.178;2022-09-06T06:18:51;1.77;;;1.33;;
64225;SDS011;50545;56.064;26.178;2022-09-06T06:21:20;2.10;;;1.70;;
64225;SDS011;50545;56.064;26.178;2022-09-06T06:23:49;4.43;;;1.80;;
64225;SDS011;50545;56.064;26.178;2022-09-06T06:26:17;2.05;;;1.45;;
64225;SDS011;50545;56.064;26.178;2022-09-06T06:28:45;2.28;;;1.75;;
64225;SDS011;50545;56.064;26.178;2022-09-06T06:31:14;1.73;;;1.50;;
64225;SDS011;50545;56.064;26.178;2022-09-06T06:33:42;5.05;;;1.80;;
64225;SDS011;50545;56.064;26.178;2022-09-06T06:38:42;2.28;;;1.52;;
64225;SDS011;50545;56.064;26.178;2022-09-06T06:41:12;1.92;;;1.48;;
64225;SDS011;50545;56.064;26.178;2022-09-06T06:43:41;2.20;;;1.60;;
64225;SDS011;50545;56.064;26.178;2022-09-06T06:46:09;1.90;;;1.33;;
64225;SDS011;50545;56.064;26.178;2022-09-06T06:48:42;3.22;;;1.83;;
64225;SDS011;50545;56.064;26.178;2022-09-06T06:51:12;1.77;;;1.50;;
64225;SDS011;50545;56.064;26.178;2022-09-06T06:53:41;1.33;;;1.23;;
64225;SDS011;50545;56.064;26.178;2022-09-06T06:56:16;2.08;;;1.60;;
64225;SDS011;50545;56.064;26.178;2022-09-06T06:58:52;1.73;;;1.40;;
64225;SDS011;50545;56.064;26.178;2022-09-06T07:01:23;2.08;;;1.27;;
64225;SDS011;50545;56.064;26.178;2022-09-06T07:03:52;1.85;;;1.15;;
64225;SDS011;50545;56.064;26.178;2022-09-06T07:06:20;4.80;;;1.40;;
64225;SDS011;50545;56.064;26.178;2022-09-06T07:09:08;1.33;;;1.23;;
64225;SDS011;50545;56.064;26.178;2022-09-06T07:11:35;2.97;;;1.50;;
64225;SDS011;50545;56.064;26.178;2022-09-06T07:14:03;2.28;;;1.30;;
64225;SDS011;50545;56.064;26.178;2022-09-06T07:16:31;1.42;;;1.33;;
64225;SDS011;50545;56.064;26.178;2022-09-06T07:18:58;1.77;;;1.40;;
64225;SDS011;50545;56.064;26.178;2022-09-06T07:21:25;2.38;;;1.42;;
64225;SDS011;50545;56.064;26.178;2022-09-06T07:24:11;3.25;;;1.35;;
64225;SDS011;50545;56.064;26.178;2022-09-06T07:26:38;1.88;;;1.10;;
64225;SDS011;50545;56.064;26.178;2022-09-06T07:29:06;2.17;;;1.55;;
64225;SDS011;50545;56.064;26.178;2022-09-06T07:31:34;1.45;;;1.27;;
64225;SDS011;50545;56.064;26.178;2022-09-06T07:34:23;1.70;;;1.33;;
64225;SDS011;50545;56.064;26.178;2022-09-06T07:36:52;1.17;;;1.05;;
64225;SDS011;50545;56.064;26.178;2022-09-06T07:39:20;1.40;;;1.30;;
64225;SDS011;50545;56.064;26.178;2022-09-06T07:41:47;2.72;;;1.30;;
64225;SDS011;50545;56.064;26.178;2022-09-06T07:44:15;1.42;;;1.33;;
64225;SDS011;50545;56.064;26.178;2022-09-06T07:46:42;1.40;;;1.27;;
64225;SDS011;50545;56.064;26.178;2022-09-06T07:49:10;1.15;;;1.08;;
64225;SDS011;50545;56.064;26.178;2022-09-06T07:51:37;1.55;;;1.30;;
64225;SDS011;50545;56.064;26.178;2022-09-06T07:54:04;1.10;;;0.93;;
64225;SDS011;50545;56.064;26.178;2022-09-06T07:56:53;2.15;;;1.33;;
64225;SDS011;50545;56.064;26.178;2022-09-06T07:59:20;1.25;;;1.00;;
64225;SDS011;50545;56.064;26.178;2022-09-06T08:01:47;1.27;;;1.05;;
64225;SDS011;50545;56.064;26.178;2022-09-06T08:04:15;2.28;;;1.35;;
64225;SDS011;50545;56.064;26.178;2022-09-06T08:06:44;1.80;;;1.38;;
64225;SDS011;50545;56.064;26.178;2022-09-06T08:09:34;2.08;;;1.50;;
64225;SDS011;50545;56.064;26.178;2022-09-06T08:12:02;1.13;;;1.05;;
64225;SDS011;50545;56.064;26.178;2022-09-06T08:14:33;1.05;;;1.00;;
64225;SDS011;50545;56.064;26.178;2022-09-06T08:17:01;1.20;;;1.10;;
64225;SDS011;50545;56.064;26.178;2022-09-06T08:19:28;1.88;;;1.30;;
64225;SDS011;50545;56.064;26.178;2022-09-06T08:21:56;2.45;;;1.30;;
64225;SDS011;50545;56.064;26.178;2022-09-06T08:24:23;1.30;;;1.20;;
64225;SDS011;50545;56.064;26.178;2022-09-06T08:26:50;1.30;;;1.20;;
64225;SDS011;50545;56.064;26.178;2022-09-06T08:29:17;1.38;;;1.13;;
64225;SDS011;50545;56.064;26.178;2022-09-06T08:31:48;1.02;;;1.02;;
64225;SDS011;50545;56.064;26.178;2022-09-06T08:34:15;1.60;;;1.40;;
64225;SDS011;50545;56.064;26.178;2022-09-06T08:36:42;3.53;;;1.25;;
64225;SDS011;50545;56.064;26.178;2022-09-06T08:39:10;1.00;;;0.95;;
64225;SDS011;50545;56.064;26.178;2022-09-06T08:44:45;1.10;;;1.00;;
64225;SDS011;50545;56.064;26.178;2022-09-06T08:47:19;1.23;;;1.10;;
64225;SDS011;50545;56.064;26.178;2022-09-06T08:49:49;1.30;;;1.20;;
64225;SDS011;50545;56.064;26.178;2022-09-06T08:55:34;1.00;;;0.95;;
64225;SDS011;50545;56.064;26.178;2022-09-06T08:58:08;1.20;;;1.10;;
64225;SDS011;50545;56.064;26.178;2022-09-06T09:00:37;1.17;;;1.02;;
64225;SDS011;50545;56.064;26.178;2022-09-06T09:03:11;1.10;;;1.00;;
64225;SDS011;50545;56.064;26.178;2022-09-06T09:05:45;0.98;;;0.98;;
64225;SDS011;50545;56.064;26.178;2022-09-06T09:09:00;2.00;;;0.95;;
64225;SDS011;50545;56.064;26.178;2022-09-06T09:11:14;1.38;;;1.00;;
64225;SDS011;50545;56.064;26.178;2022-09-06T09:16:28;0.70;;;0.70;;
64225;SDS011;50545;56.064;26.178;2022-09-06T09:18:57;0.60;;;0.60;;
64225;SDS011;50545;56.064;26.178;2022-09-06T09:21:33;1.85;;;0.95;;
64225;SDS011;50545;56.064;26.178;2022-09-06T09:24:04;0.88;;;0.88;;
64225;SDS011;50545;56.064;26.178;2022-09-06T09:32:42;0.90;;;0.80;;
64225;SDS011;50545;56.064;26.178;2022-09-06T09:35:14;1.08;;;0.98;;
64225;SDS011;50545;56.064;26.178;2022-09-06T09:37:43;1.13;;;0.88;;
64225;SDS011;50545;56.064;26.178;2022-09-06T09:40:14;1.80;;;0.70;;
64225;SDS011;50545;56.064;26.178;2022-09-06T09:43:06;0.50;;;0.50;;
64225;SDS011;50545;56.064;26.178;2022-09-06T09:45:41;1.25;;;0.65;;
64225;SDS011;50545;56.064;26.178;2022-09-06T09:48:25;0.85;;;0.63;;
64225;SDS011;50545;56.064;26.178;2022-09-06T09:50:54;0.68;;;0.68;;
64225;SDS011;50545;56.064;26.178;2022-09-06T09:53:22;1.13;;;1.02;;
64225;SDS011;50545;56.064;26.178;2022-09-06T09:55:56;0.90;;;0.90;;
64225;SDS011;50545;56.064;26.178;2022-09-06T09:58:36;0.85;;;0.82;;
64225;SDS011;50545;56.064;26.178;2022-09-06T10:01:14;1.17;;;0.80;;
64225;SDS011;50545;56.064;26.178;2022-09-06T10:03:46;0.75;;;0.75;;
64225;SDS011;50545;56.064;26.178;2022-09-06T10:06:33;1.02;;;0.98;;
64225;SDS011;50545;56.064;26.178;2022-09-06T10:09:28;1.33;;;1.10;;
64225;SDS011;50545;56.064;26.178;2022-09-06T10:11:59;0.65;;;0.55;;
64225;SDS011;50545;56.064;26.178;2022-09-06T10:14:28;0.55;;;0.55;;
64225;SDS011;50545;56.064;26.178;2022-09-06T10:16:57;0.70;;;0.70;;
64225;SDS011;50545;56.064;26.178;2022-09-06T10:19:39;1.73;;;0.80;;
64225;SDS011;50545;56.064;26.178;2022-09-06T10:22:22;0.80;;;0.80;;
64225;SDS011;50545;56.064;26.178;2022-09-06T10:30:57;0.60;;;0.60;;
64225;SDS011;50545;56.064;26.178;2022-09-06T10:36:16;0.85;;;0.82;;
64225;SDS011;50545;56.064;26.178;2022-09-06T10:38:54;0.90;;;0.82;;
64225;SDS011;50545;56.064;26.178;2022-09-06T10:41:52;2.45;;;1.10;;
64225;SDS011;50545;56.064;26.178;2022-09-06T10:44:49;0.80;;;0.80;;
64225;SDS011;50545;56.064;26.178;2022-09-06T10:56:36;1.23;;;0.70;;
64225;SDS011;50545;56.064;26.178;2022-09-06T11:05:08;2.25;;;0.80;;
64225;SDS011;50545;56.064;26.178;2022-09-06T11:10:49;1.20;;;0.95;;
64225;SDS011;50545;56.064;26.178;2022-09-06T11:13:18;1.85;;;1.10;;
64225;SDS011;50545;56.064;26.178;2022-09-06T11:15:49;1.23;;;0.95;;
64225;SDS011;50545;56.064;26.178;2022-09-06T11:18:31;0.80;;;0.80;;
64225;SDS011;50545;56.064;26.178;2022-09-06T11:24:14;1.17;;;0.80;;
64225;SDS011;50545;56.064;26.178;2022-09-06T11:30:00;2.63;;;1.00;;
64225;SDS011;50545;56.064;26.178;2022-09-06T11:35:08;1.50;;;0.82;;
64225;SDS011;50545;56.064;26.178;2022-09-06T11:37:47;4.40;;;0.90;;
64225;SDS011;50545;56.064;26.178;2022-09-06T11:46:02;0.90;;;0.80;;
64225;SDS011;50545;56.064;26.178;2022-09-06T11:53:21;0.77;;;0.60;;
64225;SDS011;50545;56.064;26.178;2022-09-06T11:59:05;1.52;;;0.88;;
64225;SDS011;50545;56.064;26.178;2022-09-06T12:11:54;2.63;;;1.33;;
64225;SDS011;50545;56.064;26.178;2022-09-06T12:14:35;2.17;;;1.30;;
64225;SDS011;50545;56.064;26.178;2022-09-06T12:25:03;1.58;;;0.90;;
64225;SDS011;50545;56.064;26.178;2022-09-06T12:27:32;1.23;;;0.85;;
64225;SDS011;50545;56.064;26.178;2022-09-06T12:30:13;2.67;;;1.15;;
64225;SDS011;50545;56.064;26.178;2022-09-06T12:33:25;1.13;;;0.90;;
64225;SDS011;50545;56.064;26.178;2022-09-06T12:36:12;1.20;;;1.10;;
64225;SDS011;50545;56.064;26.178;2022-09-06T12:38:45;2.63;;;1.10;;
64225;SDS011;50545;56.064;26.178;2022-09-06T12:41:23;1.48;;;1.20;;
64225;SDS011;50545;56.064;26.178;2022-09-06T12:43:54;1.50;;;1.00;;
64225;SDS011;50545;56.064;26.178;2022-09-06T12:46:24;1.17;;;1.07;;
64225;SDS011;50545;56.064;26.178;2022-09-06T12:51:26;1.33;;;0.93;;
64225;SDS011;50545;56.064;26.178;2022-09-06T12:53:56;1.88;;;1.10;;
64225;SDS011;50545;56.064;26.178;2022-09-06T12:56:30;1.23;;;0.93;;
64225;SDS011;50545;56.064;26.178;2022-09-06T12:59:15;0.73;;;0.73;;
64225;SDS011;50545;56.064;26.178;2022-09-06T13:01:51;1.20;;;0.90;;
64225;SDS011;50545;56.064;26.178;2022-09-06T13:07:05;1.33;;;0.82;;
64225;SDS011;50545;56.064;26.178;2022-09-06T13:09:40;2.53;;;1.10;;
64225;SDS011;50545;56.064;26.178;2022-09-06T13:15:10;1.00;;;0.82;;
64225;SDS011;50545;56.064;26.178;2022-09-06T13:17:42;1.75;;;0.82;;
64225;SDS011;50545;56.064;26.178;2022-09-06T13:20:24;2.13;;;0.90;;
64225;SDS011;50545;56.064;26.178;2022-09-06T13:23:04;2.17;;;1.50;;
64225;SDS011;50545;56.064;26.178;2022-09-06T13:25:45;1.73;;;0.88;;
64225;SDS011;50545;56.064;26.178;2022-09-06T13:28:30;1.92;;;0.90;;
64225;SDS011;50545;56.064;26.178;2022-09-06T13:33:58;2.10;;;1.15;;
64225;SDS011;50545;56.064;26.178;2022-09-06T13:36:26;2.53;;;0.90;;
64225;SDS011;50545;56.064;26.178;2022-09-06T13:38:58;1.48;;;1.10;;
64225;SDS011;50545;56.064;26.178;2022-09-06T13:43:57;3.92;;;1.17;;
64225;SDS011;50545;56.064;26.178;2022-09-06T13:46:24;1.42;;;1.10;;
64225;SDS011;50545;56.064;26.178;2022-09-06T13:48:52;0.70;;;0.70;;
64225;SDS011;50545;56.064;26.178;2022-09-06T13:51:20;0.70;;;0.70;;
64225;SDS011;50545;56.064;26.178;2022-09-06T13:53:49;1.42;;;1.10;;
64225;SDS011;50545;56.064;26.178;2022-09-06T13:56:16;2.70;;;0.85;;
64225;SDS011;50545;56.064;26.178;2022-09-06T13:58:43;0.70;;;0.70;;
64225;SDS011;50545;56.064;26.178;2022-09-06T14:01:11;0.82;;;0.82;;
64225;SDS011;50545;56.064;26.178;2022-09-06T14:03:40;1.08;;;0.90;;
64225;SDS011;50545;56.064;26.178;2022-09-06T14:06:08;0.75;;;0.75;;
64225;SDS011;50545;56.064;26.178;2022-09-06T14:08:36;1.55;;;0.80;;
64225;SDS011;50545;56.064;26.178;2022-09-06T14:11:24;1.08;;;0.90;;
64225;SDS011;50545;56.064;26.178;2022-09-06T14:13:52;0.88;;;0.82;;
64225;SDS011;50545;56.064;26.178;2022-09-06T14:16:19;1.60;;;0.80;;
64225;SDS011;50545;56.064;26.178;2022-09-06T14:18:47;0.80;;;0.80;;
64225;SDS011;50545;56.064;26.178;2022-09-06T14:21:14;0.80;;;0.75;;
64225;SDS011;50545;56.064;26.178;2022-09-06T14:23:42;1.88;;;0.80;;
64225;SDS011;50545;56.064;26.178;2022-09-06T14:26:13;1.33;;;1.00;;
64225;SDS011;50545;56.064;26.178;2022-09-06T14:28:40;2.15;;;1.08;;
64225;SDS011;50545;56.064;26.178;2022-09-06T14:31:15;1.00;;;0.75;;
64225;SDS011;50545;56.064;26.178;2022-09-06T14:33:44;1.45;;;1.10;;
64225;SDS011;50545;56.064;26.178;2022-09-06T14:36:12;1.58;;;0.70;;
64225;SDS011;50545;56.064;26.178;2022-09-06T14:38:42;1.88;;;1.00;;
64225;SDS011;50545;56.064;26.178;2022-09-06T14:41:11;3.13;;;1.13;;
64225;SDS011;50545;56.064;26.178;2022-09-06T14:43:40;2.33;;;1.20;;
64225;SDS011;50545;56.064;26.178;2022-09-06T14:46:12;1.75;;;0.82;;
64225;SDS011;50545;56.064;26.178;2022-09-06T14:48:41;0.93;;;0.90;;
64225;SDS011;50545;56.064;26.178;2022-09-06T14:51:10;1.30;;;0.60;;
64225;SDS011;50545;56.064;26.178;2022-09-06T14:53:40;1.17;;;0.88;;
64225;SDS011;50545;56.064;26.178;2022-09-06T14:56:09;2.67;;;0.98;;
64225;SDS011;50545;56.064;26.178;2022-09-06T14:58:37;1.50;;;0.90;;
64225;SDS011;50545;56.064;26.178;2022-09-06T15:01:10;0.98;;;0.82;;
64225;SDS011;50545;56.064;26.178;2022-09-06T15:03:40;1.73;;;1.10;;
64225;SDS011;50545;56.064;26.178;2022-09-06T15:06:09;0.93;;;0.70;;
64225;SDS011;50545;56.064;26.178;2022-09-06T15:08:36;1.58;;;0.90;;
64225;SDS011;50545;56.064;26.178;2022-09-06T15:11:04;1.65;;;1.08;;
64225;SDS011;50545;56.064;26.178;2022-09-06T15:13:34;0.82;;;0.82;;
64225;SDS011;50545;56.064;26.178;2022-09-06T15:16:05;1.00;;;0.80;;
64225;SDS011;50545;56.064;26.178;2022-09-06T15:18:34;0.77;;;0.77;;
64225;SDS011;50545;56.064;26.178;2022-09-06T15:21:08;0.95;;;0.80;;
64225;SDS011;50545;56.064;26.178;2022-09-06T15:23:37;1.63;;;1.05;;
64225;SDS011;50545;56.064;26.178;2022-09-06T15:26:06;0.90;;;0.90;;
64225;SDS011;50545;56.064;26.178;2022-09-06T15:28:34;0.80;;;0.50;;
64225;SDS011;50545;56.064;26.178;2022-09-06T15:31:05;0.70;;;0.70;;
64225;SDS011;50545;56.064;26.178;2022-09-06T15:33:34;1.55;;;1.00;;
64225;SDS011;50545;56.064;26.178;2022-09-06T15:36:03;1.38;;;1.10;;
64225;SDS011;50545;56.064;26.178;2022-09-06T15:38:32;1.15;;;1.00;;
64225;SDS011;50545;56.064;26.178;2022-09-06T15:41:07;3.13;;;1.05;;
64225;SDS011;50545;56.064;26.178;2022-09-06T15:43:40;3.30;;;1.30;;
64225;SDS011;50545;56.064;26.178;2022-09-06T15:46:10;1.85;;;1.00;;
64225;SDS011;50545;56.064;26.178;2022-09-06T15:48:42;2.28;;;1.50;;
64225;SDS011;50545;56.064;26.178;2022-09-06T15:51:12;4.50;;;1.40;;
64225;SDS011;50545;56.064;26.178;2022-09-06T15:53:43;6.53;;;1.40;;
64225;SDS011;50545;56.064;26.178;2022-09-06T15:56:15;1.73;;;1.20;;
64225;SDS011;50545;56.064;26.178;2022-09-06T15:58:43;3.50;;;1.40;;
64225;SDS011;50545;56.064;26.178;2022-09-06T16:01:12;4.85;;;1.80;;
64225;SDS011;50545;56.064;26.178;2022-09-06T16:03:42;2.75;;;1.10;;
64225;SDS011;50545;56.064;26.178;2022-09-06T16:06:18;2.70;;;1.10;;
64225;SDS011;50545;56.064;26.178;2022-09-06T16:08:52;3.22;;;1.00;;
64225;SDS011;50545;56.064;26.178;2022-09-06T16:11:24;3.97;;;1.83;;
64225;SDS011;50545;56.064;26.178;2022-09-06T16:13:53;2.75;;;1.10;;
64225;SDS011;50545;56.064;26.178;2022-09-06T16:16:21;2.35;;;1.20;;
64225;SDS011;50545;56.064;26.178;2022-09-06T16:18:48;1.42;;;1.08;;
64225;SDS011;50545;56.064;26.178;2022-09-06T16:23:48;1.65;;;1.10;;
64225;SDS011;50545;56.064;26.178;2022-09-06T16:26:18;1.70;;;1.20;;
64225;SDS011;50545;56.064;26.178;2022-09-06T16:28:47;1.17;;;0.88;;
64225;SDS011;50545;56.064;26.178;2022-09-06T16:31:17;4.50;;;1.13;;
64225;SDS011;50545;56.064;26.178;2022-09-06T16:33:47;4.90;;;1.40;;
64225;SDS011;50545;56.064;26.178;2022-09-06T16:36:16;2.65;;;1.17;;
64225;SDS011;50545;56.064;26.178;2022-09-06T16:38:44;1.13;;;1.02;;
64225;SDS011;50545;56.064;26.178;2022-09-06T16:41:14;1.17;;;1.10;;
64225;SDS011;50545;56.064;26.178;2022-09-06T16:43:44;21.35;;;2.35;;
64225;SDS011;50545;56.064;26.178;2022-09-06T16:46:12;7.63;;;1.70;;
64225;SDS011;50545;56.064;26.178;2022-09-06T16:48:40;7.65;;;2.30;;
64225;SDS011;50545;56.064;26.178;2022-09-06T16:51:17;4.82;;;1.50;;
64225;SDS011;50545;56.064;26.178;2022-09-06T16:53:46;2.70;;;1.20;;
64225;SDS011;50545;56.064;26.178;2022-09-06T16:56:17;5.45;;;1.20;;
64225;SDS011;50545;56.064;26.178;2022-09-06T16:58:48;16.05;;;2.00;;
64225;SDS011;50545;56.064;26.178;2022-09-06T17:01:19;3.45;;;1.48;;
64225;SDS011;50545;56.064;26.178;2022-09-06T17:03:47;6.72;;;1.35;;